Saint Louis, Missouri
Current Conditions -  °F | °C
As of 7:53 AM on Sunday 25 Jan 2015 (Local Time) from KCPS Reporting Station
Overcast Overcast  
Wind Chill: 44°   Ceiling: 2100
Heat Index: 44°   Visibility: 7mi
Dew Point: 42°   Wind: 3mph
Humidity: 93%   Direction: 140°SE
Pressure: 29.58"   Gusts: NA
Location:  38.63°N, 90.24°W
Report Text: KCPS 251353Z 14003KT 7SM OVC021 07/06 A2958 RMK AO2 RAB1259E51 SLP018 P0000 T00670056
Loading
Personal Weather Stations






























Interactive Weather Map New forecast layout! Learn more

10-Day Weather Forecast

Advertisements
Track Severe Weather on mobile